Time,TemperatureF,DewpointF,PressureIn,WindDirection,WindDirectionDegrees,WindSpeedMPH,WindSpeedGustMPH,Humidity,HourlyPrecipIn,Conditions,Clouds,dailyrainin,SoftwareType,DateUTC
2013-01-04 00:01:00,27.7,22.6,29.09,North,5,0.0,0.0,81,0.00,,---,0.00,VWS V13.01,2013-01-04 05:01:00,
2013-01-04 00:03:00,27.5,22.5,29.09,North,5,0.0,0.0,81,0.00,,---,0.00,VWS V13.01,2013-01-04 05:03:00,
2013-01-04 00:08:00,27.5,22.5,29.09,North,5,0.0,0.0,81,0.00,,---,0.00,VWS V13.01,2013-01-04 05:08:00,
2013-01-04 00:13:00,27.5,22.5,29.09,North,5,0.0,0.0,81,0.00,,---,0.00,VWS V13.01,2013-01-04 05:13:00,
2013-01-04 00:18:00,27.3,22.3,29.09,North,5,0.0,0.0,81,0.00,,---,0.00,VWS V13.01,2013-01-04 05:18:00,
2013-01-04 00:23:00,27.1,22.1,29.09,North,5,0.0,0.0,81,0.00,,---,0.00,VWS V13.01,2013-01-04 05:23:00,
2013-01-04 00:28:00,27.0,21.9,29.09,North,5,0.0,0.0,81,0.00,,---,0.00,VWS V13.01,2013-01-04 05:28:00,
2013-01-04 00:33:00,27.0,21.9,29.09,North,5,0.0,0.0,81,0.00,,---,0.00,VWS V13.01,2013-01-04 05:33:00,
2013-01-04 00:38:00,27.0,21.9,29.09,North,5,0.0,0.0,81,0.00,,---,0.00,VWS V13.01,2013-01-04 05:38:00,
2013-01-04 00:43:00,26.8,21.7,29.09,North,5,0.0,0.0,81,0.00,,---,0.00,VWS V13.01,2013-01-04 05:43:00,
2013-01-04 00:48:00,26.8,21.7,29.09,North,5,0.0,0.0,81,0.00,,---,0.00,VWS V13.01,2013-01-04 05:48:00,
2013-01-04 00:53:00,26.8,21.7,29.09,North,5,0.0,0.0,81,0.00,,---,0.00,VWS V13.01,2013-01-04 05:53:00,
2013-01-04 00:58:00,26.6,21.6,29.09,North,5,0.0,0.0,81,0.00,,---,0.00,VWS V13.01,2013-01-04 05:58:00,
2013-01-04 01:03:00,26.6,21.6,29.09,North,5,0.0,0.0,81,0.00,,---,0.00,VWS V13.01,2013-01-04 06:03:00,
2013-01-04 01:08:00,26.6,21.6,29.09,North,5,0.0,0.0,81,0.00,,---,0.00,VWS V13.01,2013-01-04 06:08:00,
2013-01-04 01:14:00,26.4,21.4,29.09,North,5,0.0,0.0,81,0.00,,---,0.00,VWS V13.01,2013-01-04 06:14:00,
2013-01-04 01:19:00,26.4,21.4,29.09,North,5,0.0,0.0,81,0.00,,---,0.00,VWS V13.01,2013-01-04 06:19:00,
2013-01-04 01:24:00,26.2,21.2,29.09,North,5,0.0,0.0,81,0.00,,---,0.00,VWS V13.01,2013-01-04 06:24:00,
2013-01-04 01:29:00,26.1,21.0,29.09,North,5,0.0,0.0,81,0.00,,---,0.00,VWS V13.01,2013-01-04 06:29:00,
2013-01-04 01:34:00,26.1,21.0,29.09,North,5,0.0,0.0,81,0.00,,---,0.00,VWS V13.01,2013-01-04 06:34:00,
2013-01-04 01:39:00,26.1,21.0,29.09,North,5,0.0,0.0,81,0.00,,---,0.00,VWS V13.01,2013-01-04 06:39:00,
2013-01-04 01:44:00,26.1,21.0,29.09,North,5,0.0,0.0,81,0.00,,---,0.00,VWS V13.01,2013-01-04 06:44:00,
2013-01-04 01:49:00,26.1,21.0,29.09,North,5,0.0,0.0,81,0.00,,---,0.00,VWS V13.01,2013-01-04 06:49:00,
2013-01-04 01:54:00,25.9,20.9,29.09,North,5,0.0,0.0,81,0.00,,---,0.00,VWS V13.01,2013-01-04 06:54:00,
2013-01-04 01:59:00,25.7,20.7,29.09,North,5,0.0,0.0,81,0.00,,---,0.00,VWS V13.01,2013-01-04 06:59:00,
2013-01-04 02:04:00,25.7,20.7,29.09,North,5,0.0,0.0,81,0.00,,---,0.00,VWS V13.01,2013-01-04 07:04:00,
2013-01-04 02:09:00,25.5,20.5,29.09,North,5,0.0,0.0,81,0.00,,---,0.00,VWS V13.01,2013-01-04 07:09:00,
2013-01-04 02:14:00,25.3,20.3,29.09,North,5,0.0,0.0,81,0.00,,---,0.00,VWS V13.01,2013-01-04 07:14:00,
2013-01-04 02:19:00,25.3,20.3,29.09,North,5,0.0,0.0,81,0.00,,---,0.00,VWS V13.01,2013-01-04 07:19:00,
2013-01-04 02:24:00,25.3,20.3,29.09,North,5,0.0,0.0,81,0.00,,---,0.00,VWS V13.01,2013-01-04 07:24:00,
2013-01-04 02:29:00,25.3,20.3,29.09,North,5,0.0,0.0,81,0.00,,---,0.00,VWS V13.01,2013-01-04 07:29:00,
2013-01-04 02:34:00,25.2,20.2,29.09,North,5,0.0,0.0,81,0.00,,---,0.00,VWS V13.01,2013-01-04 07:34:00,
2013-01-04 02:39:00,25.2,20.2,29.09,North,5,0.0,0.0,81,0.00,,---,0.00,VWS V13.01,2013-01-04 07:39:00,
2013-01-04 02:44:00,25.2,20.2,29.09,North,5,0.0,0.0,81,0.00,,---,0.00,VWS V13.01,2013-01-04 07:44:00,
2013-01-04 02:49:00,25.0,20.0,29.09,North,5,0.0,0.0,81,0.00,,---,0.00,VWS V13.01,2013-01-04 07:49:00,
2013-01-04 02:54:00,25.0,20.0,29.09,North,5,0.0,0.0,81,0.00,,---,0.00,VWS V13.01,2013-01-04 07:54:00,
2013-01-04 03:00:00,25.0,20.0,29.09,North,5,0.0,0.0,81,0.00,,---,0.00,VWS V13.01,2013-01-04 08:00:00,
2013-01-04 03:04:00,25.0,20.0,29.09,North,5,0.0,0.0,81,0.00,,---,0.00,VWS V13.01,2013-01-04 08:04:00,
2013-01-04 03:09:00,25.0,20.0,29.09,North,5,0.0,0.0,81,0.00,,---,0.00,VWS V13.01,2013-01-04 08:09:00,
2013-01-04 03:15:00,24.8,19.8,29.09,North,5,0.0,0.0,81,0.00,,---,0.00,VWS V13.01,2013-01-04 08:15:00,
2013-01-04 03:20:00,24.8,19.8,29.09,North,5,0.0,0.0,81,0.00,,---,0.00,VWS V13.01,2013-01-04 08:20:00,
2013-01-04 03:25:00,24.8,19.8,29.09,North,5,0.0,0.0,81,0.00,,---,0.00,VWS V13.01,2013-01-04 08:25:00,
2013-01-04 03:30:00,24.6,19.6,29.09,North,5,0.0,0.0,81,0.00,,---,0.00,VWS V13.01,2013-01-04 08:30:00,
2013-01-04 03:35:00,24.6,19.6,29.09,North,5,0.0,0.0,81,0.00,,---,0.00,VWS V13.01,2013-01-04 08:35:00,
2013-01-04 03:40:00,24.4,19.5,29.09,North,5,0.0,0.0,81,0.00,,---,0.00,VWS V13.01,2013-01-04 08:40:00,
2013-01-04 03:45:00,24.4,19.5,29.09,North,5,0.0,0.0,81,0.00,,---,0.00,VWS V13.01,2013-01-04 08:45:00,
2013-01-04 03:50:00,24.3,19.3,29.09,North,5,0.0,0.0,81,0.00,,---,0.00,VWS V13.01,2013-01-04 08:50:00,
2013-01-04 03:55:00,24.4,19.5,29.09,North,5,0.0,0.0,81,0.00,,---,0.00,VWS V13.01,2013-01-04 08:55:00,
2013-01-04 04:00:00,24.3,19.3,29.09,North,5,0.0,0.0,81,0.00,,---,0.00,VWS V13.01,2013-01-04 09:00:00,
2013-01-04 04:05:00,24.1,19.1,29.09,North,5,0.0,0.0,81,0.00,,---,0.00,VWS V13.01,2013-01-04 09:05:00,
2013-01-04 04:10:00,24.1,19.1,29.09,North,5,0.0,0.0,81,0.00,,---,0.00,VWS V13.01,2013-01-04 09:10:00,
2013-01-04 04:15:00,24.1,19.1,29.09,North,5,0.0,0.0,81,0.00,,---,0.00,VWS V13.01,2013-01-04 09:15:00,
2013-01-04 04:20:00,24.1,19.1,29.09,North,5,0.0,0.0,81,0.00,,---,0.00,VWS V13.01,2013-01-04 09:20:00,
2013-01-04 04:25:00,23.9,18.9,29.09,North,5,0.0,0.0,81,0.00,,---,0.00,VWS V13.01,2013-01-04 09:25:00,
2013-01-04 04:30:00,23.9,18.9,29.09,North,5,0.0,0.0,81,0.00,,---,0.00,VWS V13.01,2013-01-04 09:30:00,
2013-01-04 04:35:00,23.9,18.9,29.09,North,5,0.0,0.0,81,0.00,,---,0.00,VWS V13.01,2013-01-04 09:35:00,
2013-01-04 04:40:00,23.7,18.8,29.09,North,5,0.0,0.0,81,0.00,,---,0.00,VWS V13.01,2013-01-04 09:40:00,
2013-01-04 04:45:00,23.7,18.8,29.09,North,5,0.0,0.0,81,0.00,,---,0.00,VWS V13.01,2013-01-04 09:45:00,
2013-01-04 04:50:00,23.5,18.6,29.09,North,5,0.0,0.0,81,0.00,,---,0.00,VWS V13.01,2013-01-04 09:50:00,
2013-01-04 04:55:00,23.5,18.6,29.09,North,5,0.0,0.0,81,0.00,,---,0.00,VWS V13.01,2013-01-04 09:55:00,
2013-01-04 05:00:00,23.4,18.4,29.09,North,5,0.0,0.0,81,0.00,,---,0.00,VWS V13.01,2013-01-04 10:00:00,
2013-01-04 05:05:00,23.4,18.4,29.09,North,5,0.0,0.0,81,0.00,,---,0.00,VWS V13.01,2013-01-04 10:05:00,
2013-01-04 05:10:00,23.4,18.4,29.09,North,5,0.0,0.0,81,0.00,,---,0.00,VWS V13.01,2013-01-04 10:10:00,
2013-01-04 05:16:00,23.4,18.4,29.09,North,5,0.0,0.0,81,0.00,,---,0.00,VWS V13.01,2013-01-04 10:16:00,
2013-01-04 05:21:00,23.4,18.4,29.09,North,5,0.0,0.0,81,0.00,,---,0.00,VWS V13.01,2013-01-04 10:21:00,
2013-01-04 05:26:00,23.4,18.4,29.09,North,5,0.0,0.0,81,0.00,,---,0.00,VWS V13.01,2013-01-04 10:26:00,
2013-01-04 05:31:00,23.2,18.2,29.09,North,5,0.0,0.0,81,0.00,,---,0.00,VWS V13.01,2013-01-04 10:31:00,
2013-01-04 05:36:00,23.2,18.2,29.09,North,5,0.0,0.0,81,0.00,,---,0.00,VWS V13.01,2013-01-04 10:36:00,
2013-01-04 05:41:00,23.2,18.2,29.09,North,5,0.0,0.0,81,0.00,,---,0.00,VWS V13.01,2013-01-04 10:41:00,
2013-01-04 05:46:00,23.2,18.2,29.09,North,5,0.0,0.0,81,0.00,,---,0.00,VWS V13.01,2013-01-04 10:46:00,
2013-01-04 05:51:00,23.2,18.2,29.09,North,5,0.0,0.0,81,0.00,,---,0.00,VWS V13.01,2013-01-04 10:51:00,
2013-01-04 05:56:00,23.2,18.2,29.09,North,5,0.0,0.0,81,0.00,,---,0.00,VWS V13.01,2013-01-04 10:56:00,
2013-01-04 06:01:00,23.2,18.2,29.09,North,5,0.0,0.0,81,0.00,,---,0.00,VWS V13.01,2013-01-04 11:01:00,
2013-01-04 06:06:00,23.0,18.0,29.09,North,5,0.0,0.0,81,0.00,,---,0.00,VWS V13.01,2013-01-04 11:06:00,
2013-01-04 06:11:00,23.0,18.0,29.09,North,5,0.0,0.0,81,0.00,,---,0.00,VWS V13.01,2013-01-04 11:11:00,
2013-01-04 06:16:00,23.0,18.0,29.09,North,5,0.0,0.0,81,0.00,,---,0.00,VWS V13.01,2013-01-04 11:16:00,
2013-01-04 06:21:00,23.0,18.0,29.09,North,5,0.0,0.0,81,0.00,,---,0.00,VWS V13.01,2013-01-04 11:21:00,
2013-01-04 06:26:00,23.0,18.0,29.09,North,5,0.0,0.0,81,0.00,,---,0.00,VWS V13.01,2013-01-04 11:26:00,
2013-01-04 06:31:00,23.0,18.0,29.09,North,5,0.0,0.0,81,0.00,,---,0.00,VWS V13.01,2013-01-04 11:31:00,
2013-01-04 06:36:00,23.0,18.0,29.09,North,5,0.0,0.0,81,0.00,,---,0.00,VWS V13.01,2013-01-04 11:36:00,
2013-01-04 06:41:00,23.0,18.0,29.09,North,5,0.0,0.0,81,0.00,,---,0.00,VWS V13.01,2013-01-04 11:41:00,
2013-01-04 06:46:00,22.8,17.9,29.09,North,5,0.0,0.0,81,0.00,,---,0.00,VWS V13.01,2013-01-04 11:46:00,
2013-01-04 06:52:00,22.8,17.9,29.09,North,5,0.0,0.0,81,0.00,,---,0.00,VWS V13.01,2013-01-04 11:52:00,
2013-01-04 06:57:00,22.8,17.9,29.09,North,5,0.0,0.0,81,0.00,,---,0.00,VWS V13.01,2013-01-04 11:57:00,
2013-01-04 07:02:00,22.8,17.9,29.09,North,5,0.0,0.0,81,0.00,,---,0.00,VWS V13.01,2013-01-04 12:02:00,
2013-01-04 07:07:00,22.8,17.9,29.09,North,5,0.0,0.0,81,0.00,,---,0.00,VWS V13.01,2013-01-04 12:07:00,
2013-01-04 07:12:00,22.8,17.9,29.09,North,5,0.0,0.0,81,0.00,,---,0.00,VWS V13.01,2013-01-04 12:12:00,
2013-01-04 07:17:00,22.8,17.9,29.09,North,5,0.0,0.0,81,0.00,,---,0.00,VWS V13.01,2013-01-04 12:17:00,
2013-01-04 07:22:00,22.8,17.9,29.09,North,5,0.0,0.0,81,0.00,,---,0.00,VWS V13.01,2013-01-04 12:22:00,
2013-01-04 07:27:00,22.8,18.2,29.09,North,5,0.0,0.0,82,0.00,,---,0.00,VWS V13.01,2013-01-04 12:27:00,
2013-01-04 07:32:00,22.8,18.2,29.09,North,5,0.0,0.0,82,0.00,,---,0.00,VWS V13.01,2013-01-04 12:32:00,
2013-01-04 07:37:00,22.8,18.2,29.09,North,5,0.0,0.0,82,0.00,,---,0.00,VWS V13.01,2013-01-04 12:37:00,
2013-01-04 07:42:00,22.8,18.2,29.09,North,5,0.0,0.0,82,0.00,,---,0.00,VWS V13.01,2013-01-04 12:42:00,
2013-01-04 07:47:00,22.8,18.2,29.09,North,5,0.0,0.0,82,0.00,,---,0.00,VWS V13.01,2013-01-04 12:47:00,
2013-01-04 07:52:00,22.8,17.9,29.09,North,5,0.0,0.0,81,0.00,,---,0.00,VWS V13.01,2013-01-04 12:52:00,
2013-01-04 07:57:00,22.6,17.7,29.09,North,5,0.0,0.0,81,0.00,,---,0.00,VWS V13.01,2013-01-04 12:57:00,
2013-01-04 08:02:00,22.6,17.7,29.09,North,5,0.0,0.0,81,0.00,,---,0.00,VWS V13.01,2013-01-04 13:02:00,
2013-01-04 08:07:00,22.8,18.2,29.09,North,5,0.0,0.0,82,0.00,,---,0.00,VWS V13.01,2013-01-04 13:07:00,
2013-01-04 08:12:00,22.8,18.2,29.09,North,5,0.0,0.0,82,0.00,,---,0.00,VWS V13.01,2013-01-04 13:12:00,
2013-01-04 08:17:00,23.2,18.2,29.09,North,5,0.0,0.0,81,0.00,,---,0.00,VWS V13.01,2013-01-04 13:17:00,
2013-01-04 08:22:00,23.4,18.4,29.09,North,5,0.0,0.0,81,0.00,,---,0.00,VWS V13.01,2013-01-04 13:22:00,
2013-01-04 08:27:00,23.4,18.4,29.09,North,5,0.0,0.0,81,0.00,,---,0.00,VWS V13.01,2013-01-04 13:27:00,
2013-01-04 08:32:00,23.7,18.8,29.09,North,5,0.0,0.0,81,0.00,,---,0.00,VWS V13.01,2013-01-04 13:32:00,
2013-01-04 08:37:00,24.1,19.4,29.09,North,5,0.0,0.0,82,0.00,,---,0.00,VWS V13.01,2013-01-04 13:37:00,
2013-01-04 08:42:00,24.4,19.7,29.09,North,5,0.0,0.0,82,0.00,,---,0.00,VWS V13.01,2013-01-04 13:42:00,
2013-01-04 08:47:00,24.8,20.1,29.09,North,5,0.0,0.0,82,0.00,,---,0.00,VWS V13.01,2013-01-04 13:47:00,
2013-01-04 08:52:00,25.3,20.6,29.09,North,5,0.0,0.0,82,0.00,,---,0.00,VWS V13.01,2013-01-04 13:52:00,
2013-01-04 08:57:00,25.7,21.0,29.09,North,5,0.0,0.0,82,0.00,,---,0.00,VWS V13.01,2013-01-04 13:57:00,
2013-01-04 09:02:00,26.1,21.3,29.09,North,5,0.0,0.0,82,0.00,,---,0.00,VWS V13.01,2013-01-04 14:02:00,
2013-01-04 09:08:00,26.6,21.9,29.09,North,5,0.0,0.0,82,0.00,,---,0.00,VWS V13.01,2013-01-04 14:08:00,
2013-01-04 09:12:00,27.3,22.6,29.09,North,0,0.0,0.0,82,0.00,,---,0.00,VWS V13.01,2013-01-04 14:12:00,
2013-01-04 09:18:00,28.0,23.3,29.09,North,0,0.0,0.0,82,0.00,,---,0.00,VWS V13.01,2013-01-04 14:18:00,
2013-01-04 09:23:00,28.9,24.1,29.09,WSW,256,0.0,0.0,82,0.00,,---,0.00,VWS V13.01,2013-01-04 14:23:00,
2013-01-04 09:28:00,29.8,25.3,29.09,SW,214,0.0,0.0,83,0.00,,---,0.00,VWS V13.01,2013-01-04 14:28:00,
2013-01-04 09:33:00,30.7,26.2,29.09,West,270,0.0,0.0,83,0.00,,---,0.00,VWS V13.01,2013-01-04 14:33:00,
2013-01-04 09:38:00,31.3,26.7,29.09,West,265,0.0,0.0,83,0.00,,---,0.00,VWS V13.01,2013-01-04 14:38:00,
2013-01-04 09:43:00,32.2,27.6,29.09,West,265,0.0,0.0,83,0.00,,---,0.00,VWS V13.01,2013-01-04 14:43:00,
2013-01-04 09:48:00,32.9,28.3,29.09,WSW,256,0.0,0.0,83,0.00,,---,0.00,VWS V13.01,2013-01-04 14:48:00,
2013-01-04 09:53:00,33.4,28.5,29.09,WSW,247,2.2,3.6,82,0.00,,---,0.00,VWS V13.01,2013-01-04 14:53:00,
2013-01-04 09:58:00,34.3,28.5,29.09,NNW,327,3.1,6.3,79,0.00,,---,0.00,VWS V13.01,2013-01-04 14:58:00,
2013-01-04 10:03:00,35.1,28.0,29.09,NNW,335,2.7,4.0,75,0.00,,---,0.00,VWS V13.01,2013-01-04 15:03:00,
2013-01-04 10:08:00,35.8,25.9,29.09,NW,320,8.1,8.1,67,0.00,,---,0.00,VWS V13.01,2013-01-04 15:08:00,
2013-01-04 10:13:00,36.1,21.1,29.09,NW,310,4.9,8.1,54,0.00,,---,0.00,VWS V13.01,2013-01-04 15:13:00,
2013-01-04 10:18:00,36.7,20.3,29.09,NW,312,3.1,8.1,51,0.00,,---,0.00,VWS V13.01,2013-01-04 15:18:00,
2013-01-04 10:23:00,37.2,19.8,29.09,NNW,338,5.8,5.8,49,0.00,,---,0.00,VWS V13.01,2013-01-04 15:23:00,
2013-01-04 10:28:00,37.6,19.2,29.09,NW,312,3.6,6.3,47,0.00,,---,0.00,VWS V13.01,2013-01-04 15:28:00,
2013-01-04 10:33:00,38.1,18.1,29.09,NNW,330,6.3,8.3,44,0.00,,---,0.00,VWS V13.01,2013-01-04 15:33:00,
2013-01-04 10:38:00,38.7,18.6,29.09,West,281,0.0,8.3,44,0.00,,---,0.00,VWS V13.01,2013-01-04 15:38:00,
2013-01-04 10:43:00,39.0,19.0,29.09,NW,311,3.6,6.3,44,0.00,,---,0.00,VWS V13.01,2013-01-04 15:43:00,
2013-01-04 10:48:00,39.6,18.4,29.09,NNW,337,3.6,7.2,42,0.00,,---,0.00,VWS V13.01,2013-01-04 15:48:00,
2013-01-04 10:53:00,39.9,18.7,29.09,West,269,4.0,7.2,42,0.00,,---,0.00,VWS V13.01,2013-01-04 15:53:00,
2013-01-04 10:59:00,40.3,19.0,29.09,NW,313,5.8,7.2,42,0.00,,---,0.00,VWS V13.01,2013-01-04 15:59:00,
2013-01-04 11:04:00,40.6,18.2,29.09,NNW,335,3.1,5.8,40,0.00,,---,0.00,VWS V13.01,2013-01-04 16:04:00,
2013-01-04 11:09:00,41.2,18.1,29.09,NW,320,5.4,9.2,39,0.00,,---,0.00,VWS V13.01,2013-01-04 16:09:00,
2013-01-04 11:14:00,41.4,18.3,29.09,NNW,341,4.5,9.2,39,0.00,,---,0.00,VWS V13.01,2013-01-04 16:14:00,
2013-01-04 11:19:00,41.9,18.2,29.09,North,350,3.6,9.2,38,0.00,,---,0.00,VWS V13.01,2013-01-04 16:19:00,
2013-01-04 11:24:00,42.1,18.9,29.09,WNW,288,0.0,5.4,39,0.00,,---,0.00,VWS V13.01,2013-01-04 16:24:00,
2013-01-04 11:29:00,42.6,19.4,29.09,WNW,298,3.1,5.8,39,0.00,,---,0.00,VWS V13.01,2013-01-04 16:29:00,
2013-01-04 11:34:00,43.2,19.3,29.09,WNW,302,7.6,8.7,38,0.00,,---,0.00,VWS V13.01,2013-01-04 16:34:00,
2013-01-04 11:39:00,43.2,17.4,29.09,NW,316,6.3,8.7,35,0.00,,---,0.00,VWS V13.01,2013-01-04 16:39:00,
2013-01-04 11:44:00,43.5,17.7,29.09,WNW,300,4.0,8.3,35,0.00,,---,0.00,VWS V13.01,2013-01-04 16:44:00,
2013-01-04 11:49:00,43.7,17.9,29.09,NNW,338,4.9,8.3,35,0.00,,---,0.00,VWS V13.01,2013-01-04 16:49:00,
2013-01-04 11:54:00,44.2,18.3,29.09,WNW,290,3.1,8.3,35,0.00,,---,0.00,VWS V13.01,2013-01-04 16:54:00,
2013-01-04 11:59:00,44.4,18.5,29.09,NNW,327,5.8,8.3,35,0.00,,---,0.00,VWS V13.01,2013-01-04 16:59:00,
2013-01-04 12:04:00,44.8,17.5,29.09,NNW,336,5.8,8.1,33,0.00,,---,0.00,VWS V13.01,2013-01-04 17:04:00,
2013-01-04 12:09:00,45.0,17.6,29.09,SSW,202,4.0,8.1,33,0.00,,---,0.00,VWS V13.01,2013-01-04 17:09:00,
2013-01-04 12:14:00,45.3,18.6,29.09,WNW,292,2.7,8.1,34,0.00,,---,0.00,VWS V13.01,2013-01-04 17:14:00,
2013-01-04 12:19:00,45.5,18.8,29.09,WSW,253,2.2,8.1,34,0.00,,---,0.00,VWS V13.01,2013-01-04 17:19:00,
2013-01-04 12:24:00,46.0,19.3,29.09,NW,323,3.1,6.3,34,0.00,,---,0.00,VWS V13.01,2013-01-04 17:24:00,
2013-01-04 12:29:00,46.4,18.2,29.09,NW,320,3.1,7.6,32,0.00,,---,0.00,VWS V13.01,2013-01-04 17:29:00,
2013-01-04 12:34:00,46.8,19.2,29.09,West,281,3.1,7.6,33,0.00,,---,0.00,VWS V13.01,2013-01-04 17:34:00,
2013-01-04 12:39:00,47.1,17.3,29.09,North,350,3.6,7.6,30,0.00,,---,0.00,VWS V13.01,2013-01-04 17:39:00,
2013-01-04 12:44:00,47.5,18.4,29.09,NNE,28,3.6,6.3,31,0.00,,---,0.00,VWS V13.01,2013-01-04 17:44:00,
2013-01-04 12:50:00,48.0,18.1,29.09,North,0,4.0,7.6,30,0.00,,---,0.00,VWS V13.01,2013-01-04 17:50:00,
2013-01-04 12:55:00,48.2,17.5,29.09,NNW,348,8.7,8.7,29,0.00,,---,0.00,VWS V13.01,2013-01-04 17:55:00,
2013-01-04 13:00:00,48.4,17.6,29.09,NNW,337,4.0,8.7,29,0.00,,---,0.00,VWS V13.01,2013-01-04 18:00:00,
2013-01-04 13:05:00,48.4,16.8,29.09,NW,316,5.4,8.3,28,0.00,,---,0.00,VWS V13.01,2013-01-04 18:05:00,
2013-01-04 13:10:00,48.6,17.0,29.09,NNW,342,5.8,8.3,28,0.00,,---,0.00,VWS V13.01,2013-01-04 18:10:00,
2013-01-04 13:15:00,48.9,17.3,29.09,North,0,4.0,8.3,28,0.00,,---,0.00,VWS V13.01,2013-01-04 18:15:00,
2013-01-04 13:20:00,48.9,17.3,29.09,NNW,330,5.4,7.6,28,0.00,,---,0.00,VWS V13.01,2013-01-04 18:20:00,
2013-01-04 13:25:00,48.9,17.3,29.09,West,275,4.0,8.1,28,0.00,,---,0.00,VWS V13.01,2013-01-04 18:25:00,
2013-01-04 13:30:00,49.3,17.6,29.09,NW,322,5.4,8.1,28,0.00,,---,0.00,VWS V13.01,2013-01-04 18:30:00,
2013-01-04 13:35:00,49.3,17.6,29.09,WNW,303,4.0,8.7,28,0.00,,---,0.00,VWS V13.01,2013-01-04 18:35:00,
2013-01-04 13:40:00,49.6,17.9,29.09,WSW,247,2.7,3.1,28,0.00,,---,0.00,VWS V13.01,2013-01-04 18:40:00,
2013-01-04 13:45:00,50.0,18.2,29.09,WSW,253,4.0,4.0,28,0.00,,---,0.00,VWS V13.01,2013-01-04 18:45:00,
2013-01-04 13:50:00,50.0,17.4,29.09,WNW,288,6.3,6.3,27,0.00,,---,0.00,VWS V13.01,2013-01-04 18:50:00,
2013-01-04 13:55:00,49.6,17.9,29.09,SE,145,2.7,6.3,28,0.00,,---,0.00,VWS V13.01,2013-01-04 18:55:00,
2013-01-04 14:00:00,49.5,17.7,29.09,WNW,299,3.1,3.6,28,0.00,,---,0.00,VWS V13.01,2013-01-04 19:00:00,
2013-01-04 14:05:00,49.5,17.7,29.09,WNW,291,2.7,6.3,28,0.00,,---,0.00,VWS V13.01,2013-01-04 19:05:00,
2013-01-04 14:10:00,49.6,17.9,29.09,NNW,338,2.7,8.1,28,0.00,,---,0.00,VWS V13.01,2013-01-04 19:10:00,
2013-01-04 14:15:00,49.8,18.0,29.09,NW,306,4.9,8.1,28,0.00,,---,0.00,VWS V13.01,2013-01-04 19:15:00,
2013-01-04 14:20:00,49.8,18.0,29.09,West,275,5.4,5.4,28,0.00,,---,0.00,VWS V13.01,2013-01-04 19:20:00,
2013-01-04 14:25:00,49.8,18.0,29.09,NW,317,5.4,6.3,28,0.00,,---,0.00,VWS V13.01,2013-01-04 19:25:00,
2013-01-04 14:30:00,49.6,17.0,29.09,NW,326,3.1,8.7,27,0.00,,---,0.00,VWS V13.01,2013-01-04 19:30:00,
2013-01-04 14:35:00,49.6,17.0,29.09,NNW,343,3.6,8.7,27,0.00,,---,0.00,VWS V13.01,2013-01-04 19:35:00,
2013-01-04 14:40:00,49.6,17.0,29.09,WSW,258,3.6,6.3,27,0.00,,---,0.00,VWS V13.01,2013-01-04 19:40:00,
2013-01-04 14:45:00,49.6,17.9,29.09,West,271,4.0,8.3,28,0.00,,---,0.00,VWS V13.01,2013-01-04 19:45:00,
2013-01-04 14:50:00,49.5,16.9,29.09,WNW,303,4.0,8.7,27,0.00,,---,0.00,VWS V13.01,2013-01-04 19:50:00,
2013-01-04 14:55:00,49.3,16.7,29.09,SW,234,0.0,8.7,27,0.00,,---,0.00,VWS V13.01,2013-01-04 19:55:00,
2013-01-04 15:00:00,49.3,16.7,29.09,North,0,0.0,0.0,27,0.00,,---,0.00,VWS V13.01,2013-01-04 20:00:00,
2013-01-04 15:06:00,49.5,17.7,29.09,NNW,344,5.4,5.8,28,0.00,,---,0.00,VWS V13.01,2013-01-04 20:06:00,
2013-01-04 15:11:00,49.1,16.6,29.09,NNW,345,5.8,6.3,27,0.00,,---,0.00,VWS V13.01,2013-01-04 20:11:00,
2013-01-04 15:16:00,48.6,16.1,29.09,NW,321,6.3,8.1,27,0.00,,---,0.00,VWS V13.01,2013-01-04 20:16:00,
2013-01-04 15:21:00,48.4,16.8,29.09,WNW,300,2.7,3.1,28,0.00,,---,0.00,VWS V13.01,2013-01-04 20:21:00,
2013-01-04 15:29:00,48.2,16.6,29.09,WSW,251,2.7,5.4,28,0.00,,---,0.00,VWS V13.01,2013-01-04 20:29:00,
2013-01-04 15:35:00,48.0,16.5,29.09,West,274,3.1,6.3,28,0.00,,---,0.00,VWS V13.01,2013-01-04 20:35:00,
2013-01-04 15:40:00,48.0,16.5,29.09,West,270,2.7,6.3,28,0.00,,---,0.00,VWS V13.01,2013-01-04 20:40:00,
2013-01-04 15:45:00,47.8,16.3,29.09,NW,313,3.6,5.8,28,0.00,,---,0.00,VWS V13.01,2013-01-04 20:45:00,
2013-01-04 15:50:00,47.7,16.2,29.09,NNW,341,5.4,5.8,28,0.00,,---,0.00,VWS V13.01,2013-01-04 20:50:00,
2013-01-04 15:55:00,47.5,16.0,29.09,WNW,292,2.7,7.6,28,0.00,,---,0.00,VWS V13.01,2013-01-04 20:55:00,
2013-01-04 16:00:00,47.3,15.9,29.09,WNW,300,3.6,3.6,28,0.00,,---,0.00,VWS V13.01,2013-01-04 21:00:00,
2013-01-04 16:05:00,47.3,15.9,29.09,NW,318,2.7,6.3,28,0.00,,---,0.00,VWS V13.01,2013-01-04 21:05:00,
2013-01-04 16:10:00,47.3,15.9,29.09,NNW,332,2.7,6.3,28,0.00,,---,0.00,VWS V13.01,2013-01-04 21:10:00,
2013-01-04 16:15:00,46.9,16.4,29.09,NNW,329,0.0,6.3,29,0.00,,---,0.00,VWS V13.01,2013-01-04 21:15:00,
2013-01-04 16:20:00,46.8,15.4,29.09,WNW,303,3.6,4.0,28,0.00,,---,0.00,VWS V13.01,2013-01-04 21:20:00,
2013-01-04 16:25:00,46.8,15.4,29.09,NW,312,3.6,6.3,28,0.00,,---,0.00,VWS V13.01,2013-01-04 21:25:00,
2013-01-04 16:30:00,46.6,15.2,29.09,NW,304,0.0,6.3,28,0.00,,---,0.00,VWS V13.01,2013-01-04 21:30:00,
2013-01-04 16:35:00,46.6,16.0,29.09,NW,307,4.0,6.3,29,0.00,,---,0.00,VWS V13.01,2013-01-04 21:35:00,
2013-01-04 16:40:00,46.4,15.1,29.09,NW,319,3.1,4.0,28,0.00,,---,0.00,VWS V13.01,2013-01-04 21:40:00,
2013-01-04 16:45:00,46.2,15.7,29.09,NW,322,5.4,6.3,29,0.00,,---,0.00,VWS V13.01,2013-01-04 21:45:00,
2013-01-04 16:50:00,46.2,15.7,29.09,NW,314,4.0,6.7,29,0.00,,---,0.00,VWS V13.01,2013-01-04 21:50:00,
2013-01-04 16:56:00,46.0,14.8,29.09,NW,322,4.5,8.1,28,0.00,,---,0.00,VWS V13.01,2013-01-04 21:56:00,
2013-01-04 17:01:00,46.0,14.8,29.09,NNW,335,5.4,5.4,28,0.00,,---,0.00,VWS V13.01,2013-01-04 22:01:00,
2013-01-04 17:06:00,45.9,14.6,29.09,NNW,330,4.9,5.8,28,0.00,,---,0.00,VWS V13.01,2013-01-04 22:06:00,
2013-01-04 17:11:00,45.7,14.5,29.09,NNW,338,3.1,5.8,28,0.00,,---,0.00,VWS V13.01,2013-01-04 22:11:00,
2013-01-04 17:16:00,45.5,14.3,29.09,NW,319,5.4,10.1,28,0.00,,---,0.00,VWS V13.01,2013-01-04 22:16:00,
2013-01-04 17:21:00,45.3,14.1,29.09,NW,319,4.5,4.9,28,0.00,,---,0.00,VWS V13.01,2013-01-04 22:21:00,
2013-01-04 17:26:00,45.1,14.0,29.09,NNW,336,5.4,5.4,28,0.00,,---,0.00,VWS V13.01,2013-01-04 22:26:00,
2013-01-04 17:31:00,44.8,13.7,29.09,WNW,290,4.0,7.6,28,0.00,,---,0.00,VWS V13.01,2013-01-04 22:31:00,
2013-01-04 17:36:00,44.6,13.5,29.09,NW,323,4.0,7.6,28,0.00,,---,0.00,VWS V13.01,2013-01-04 22:36:00,
2013-01-04 17:41:00,44.2,14.0,29.09,NW,326,0.0,4.9,29,0.00,,---,0.00,VWS V13.01,2013-01-04 22:41:00,
2013-01-04 17:46:00,44.1,13.9,29.09,WNW,291,2.7,5.4,29,0.00,,---,0.00,VWS V13.01,2013-01-04 22:46:00,
2013-01-04 17:51:00,43.9,13.7,29.09,NNW,337,5.8,5.8,29,0.00,,---,0.00,VWS V13.01,2013-01-04 22:51:00,
2013-01-04 17:56:00,43.7,13.5,29.09,NW,324,0.0,5.8,29,0.00,,---,0.00,VWS V13.01,2013-01-04 22:56:00,
2013-01-04 18:01:00,43.5,13.4,29.09,NW,316,2.7,6.7,29,0.00,,---,0.00,VWS V13.01,2013-01-04 23:01:00,
2013-01-04 18:06:00,43.2,13.1,29.09,NW,314,3.6,6.7,29,0.00,,---,0.00,VWS V13.01,2013-01-04 23:06:00,
2013-01-04 18:11:00,43.0,12.9,29.09,NW,322,5.4,6.7,29,0.00,,---,0.00,VWS V13.01,2013-01-04 23:11:00,
2013-01-04 18:16:00,42.6,12.6,29.09,NNW,341,5.4,6.7,29,0.00,,---,0.00,VWS V13.01,2013-01-04 23:16:00,
2013-01-04 18:21:00,42.3,12.3,29.09,NW,326,2.7,5.8,29,0.00,,---,0.00,VWS V13.01,2013-01-04 23:21:00,
2013-01-04 18:26:00,42.1,12.1,29.09,NW,325,3.1,5.8,29,0.00,,---,0.00,VWS V13.01,2013-01-04 23:26:00,
2013-01-04 18:31:00,41.7,11.8,29.09,NNW,337,3.1,5.8,29,0.00,,---,0.00,VWS V13.01,2013-01-04 23:31:00,
2013-01-04 18:37:00,41.5,12.4,29.09,NNW,335,2.7,6.3,30,0.00,,---,0.00,VWS V13.01,2013-01-04 23:37:00,
2013-01-04 18:42:00,41.2,12.1,29.09,NW,310,0.0,3.1,30,0.00,,---,0.00,VWS V13.01,2013-01-04 23:42:00,
2013-01-04 18:47:00,40.8,11.8,29.09,NW,316,0.0,3.1,30,0.00,,---,0.00,VWS V13.01,2013-01-04 23:47:00,
2013-01-04 18:52:00,40.3,12.1,29.09,NW,316,0.0,3.1,31,0.00,,---,0.00,VWS V13.01,2013-01-04 23:52:00,
2013-01-04 18:57:00,39.9,11.8,29.09,NW,320,2.2,3.6,31,0.00,,---,0.00,VWS V13.01,2013-01-04 23:57:00,
2013-01-04 19:02:00,39.7,11.6,29.09,NW,320,3.1,3.1,31,0.00,,---,0.00,VWS V13.01,2013-01-05 00:02:00,
2013-01-04 19:07:00,39.4,11.3,29.09,NW,325,3.1,4.9,31,0.00,,---,0.00,VWS V13.01,2013-01-05 00:07:00,
2013-01-04 19:12:00,39.4,12.0,29.09,NNW,327,2.2,4.9,32,0.00,,---,0.00,VWS V13.01,2013-01-05 00:12:00,
2013-01-04 19:17:00,39.2,11.8,29.09,NNW,327,0.0,4.9,32,0.00,,---,0.00,VWS V13.01,2013-01-05 00:17:00,
2013-01-04 19:22:00,38.7,12.1,29.09,NW,306,0.0,0.0,33,0.00,,---,0.00,VWS V13.01,2013-01-05 00:22:00,
2013-01-04 19:27:00,38.5,11.9,29.09,NNW,332,2.7,4.0,33,0.00,,---,0.00,VWS V13.01,2013-01-05 00:27:00,
2013-01-04 19:32:00,38.5,11.9,29.09,NW,325,4.0,4.0,33,0.00,,---,0.00,VWS V13.01,2013-01-05 00:32:00,
2013-01-04 19:38:00,38.1,11.6,29.09,NNW,332,3.1,4.0,33,0.00,,---,0.00,VWS V13.01,2013-01-05 00:38:00,
2013-01-04 19:42:00,38.1,11.6,29.09,NNW,332,2.2,3.1,33,0.00,,---,0.00,VWS V13.01,2013-01-05 00:42:00,
2013-01-04 19:48:00,37.9,12.1,29.09,NNW,333,0.0,3.1,34,0.00,,---,0.00,VWS V13.01,2013-01-05 00:48:00,
2013-01-04 19:53:00,37.8,11.9,29.09,NNW,334,0.0,3.1,34,0.00,,---,0.00,VWS V13.01,2013-01-05 00:53:00,
2013-01-04 19:58:00,37.4,11.6,29.09,North,353,0.0,3.1,34,0.00,,---,0.00,VWS V13.01,2013-01-05 00:58:00,
2013-01-04 20:03:00,37.2,12.1,29.09,North,353,0.0,0.0,35,0.00,,---,0.00,VWS V13.01,2013-01-05 01:03:00,
2013-01-04 20:08:00,37.0,12.6,29.09,NW,320,0.0,0.0,36,0.00,,---,0.00,VWS V13.01,2013-01-05 01:08:00,
2013-01-04 20:13:00,37.0,13.2,29.09,NNW,338,5.4,5.4,37,0.00,,---,0.00,VWS V13.01,2013-01-05 01:13:00,
2013-01-04 20:18:00,36.9,14.2,29.09,North,357,0.0,5.4,39,0.00,,---,0.00,VWS V13.01,2013-01-05 01:18:00,
2013-01-04 20:23:00,36.7,14.1,29.09,NNW,341,0.0,2.2,39,0.00,,---,0.00,VWS V13.01,2013-01-05 01:23:00,
2013-01-04 20:28:00,36.1,14.2,29.09,NNE,16,2.7,3.1,40,0.00,,---,0.00,VWS V13.01,2013-01-05 01:28:00,
2013-01-04 20:33:00,36.5,13.9,29.09,NNW,335,3.6,5.8,39,0.00,,---,0.00,VWS V13.01,2013-01-05 01:33:00,
2013-01-04 20:38:00,36.7,14.1,29.09,NNW,343,3.6,5.8,39,0.00,,---,0.00,VWS V13.01,2013-01-05 01:38:00,
2013-01-04 20:43:00,36.7,14.1,29.09,NNW,333,4.0,6.3,39,0.00,,---,0.00,VWS V13.01,2013-01-05 01:43:00,
2013-01-04 20:48:00,36.7,14.1,29.09,NNW,345,5.4,6.3,39,0.00,,---,0.00,VWS V13.01,2013-01-05 01:48:00,
2013-01-04 20:53:00,36.9,14.8,29.09,NNW,327,0.0,6.3,40,0.00,,---,0.00,VWS V13.01,2013-01-05 01:53:00,
2013-01-04 20:58:00,36.7,14.6,29.09,NNW,328,0.0,6.3,40,0.00,,---,0.00,VWS V13.01,2013-01-05 01:58:00,
2013-01-04 21:03:00,36.3,14.3,29.09,NNW,328,0.0,0.0,40,0.00,,---,0.00,VWS V13.01,2013-01-05 02:03:00,
2013-01-04 21:08:00,36.0,14.0,29.09,NNW,328,0.0,0.0,40,0.00,,---,0.00,VWS V13.01,2013-01-05 02:08:00,
2013-01-04 21:13:00,35.6,13.7,29.09,NNW,328,0.0,0.0,40,0.00,,---,0.00,VWS V13.01,2013-01-05 02:13:00,
2013-01-04 21:18:00,35.2,13.9,29.09,NNW,328,0.0,0.0,41,0.00,,---,0.00,VWS V13.01,2013-01-05 02:18:00,
2013-01-04 21:23:00,34.9,14.1,29.09,NNW,328,0.0,0.0,42,0.00,,---,0.00,VWS V13.01,2013-01-05 02:23:00,
2013-01-04 21:28:00,34.5,13.8,29.09,NNW,328,0.0,0.0,42,0.00,,---,0.00,VWS V13.01,2013-01-05 02:28:00,
2013-01-04 21:33:00,34.3,14.2,29.09,NW,321,0.0,0.0,43,0.00,,---,0.00,VWS V13.01,2013-01-05 02:33:00,
2013-01-04 21:38:00,34.0,14.4,29.09,NW,321,0.0,0.0,44,0.00,,---,0.00,VWS V13.01,2013-01-05 02:38:00,
2013-01-04 21:43:00,33.6,14.6,29.09,NW,321,0.0,0.0,45,0.00,,---,0.00,VWS V13.01,2013-01-05 02:43:00,
2013-01-04 21:48:00,33.3,15.2,29.09,NW,321,0.0,0.0,47,0.00,,---,0.00,VWS V13.01,2013-01-05 02:48:00,
2013-01-04 21:53:00,32.9,14.9,29.09,NW,321,0.0,0.0,47,0.00,,---,0.00,VWS V13.01,2013-01-05 02:53:00,
2013-01-04 21:58:00,32.7,15.2,29.09,NW,321,0.0,0.0,48,0.00,,---,0.00,VWS V13.01,2013-01-05 02:58:00,
2013-01-04 22:03:00,32.7,15.7,29.09,NW,321,0.0,0.0,49,0.00,,---,0.00,VWS V13.01,2013-01-05 03:03:00,
2013-01-04 22:08:00,32.2,16.1,29.09,NW,321,0.0,0.0,51,0.00,,---,0.00,VWS V13.01,2013-01-05 03:08:00,
2013-01-04 22:13:00,32.2,16.1,29.09,NW,321,0.0,0.0,51,0.00,,---,0.00,VWS V13.01,2013-01-05 03:13:00,
2013-01-04 22:18:00,32.0,16.4,29.09,NW,321,0.0,0.0,52,0.00,,---,0.00,VWS V13.01,2013-01-05 03:18:00,
2013-01-04 22:24:00,31.8,16.2,29.09,NW,321,0.0,0.0,52,0.00,,---,0.00,VWS V13.01,2013-01-05 03:24:00,
2013-01-04 22:29:00,31.6,16.0,29.09,NW,321,0.0,0.0,52,0.00,,---,0.00,VWS V13.01,2013-01-05 03:29:00,
2013-01-04 22:34:00,31.6,16.0,29.09,NW,321,0.0,0.0,52,0.00,,---,0.00,VWS V13.01,2013-01-05 03:34:00,
2013-01-04 22:39:00,31.3,15.7,29.09,NW,321,0.0,0.0,52,0.00,,---,0.00,VWS V13.01,2013-01-05 03:39:00,
2013-01-04 22:44:00,31.1,16.0,29.09,NW,321,0.0,0.0,53,0.00,,---,0.00,VWS V13.01,2013-01-05 03:44:00,
2013-01-04 22:49:00,30.9,15.8,29.09,NW,321,0.0,0.0,53,0.00,,---,0.00,VWS V13.01,2013-01-05 03:49:00,
2013-01-04 22:54:00,30.9,16.2,29.09,NW,321,0.0,0.0,54,0.00,,---,0.00,VWS V13.01,2013-01-05 03:54:00,
2013-01-04 22:59:00,30.9,16.2,29.09,NW,321,0.0,0.0,54,0.00,,---,0.00,VWS V13.01,2013-01-05 03:59:00,
2013-01-04 23:04:00,30.6,16.3,29.09,NW,322,0.0,0.0,55,0.00,,---,0.00,VWS V13.01,2013-01-05 04:04:00,
2013-01-04 23:09:00,30.4,16.2,29.09,NW,322,0.0,0.0,55,0.00,,---,0.00,VWS V13.01,2013-01-05 04:09:00,
2013-01-04 23:14:00,30.2,16.8,29.09,NW,322,0.0,0.0,57,0.00,,---,0.00,VWS V13.01,2013-01-05 04:14:00,
2013-01-04 23:19:00,30.2,16.8,29.09,NW,322,0.0,0.0,57,0.00,,---,0.00,VWS V13.01,2013-01-05 04:19:00,
2013-01-04 23:24:00,30.4,16.6,29.09,NW,322,0.0,0.0,56,0.00,,---,0.00,VWS V13.01,2013-01-05 04:24:00,
2013-01-04 23:29:00,30.6,16.7,29.09,NW,322,0.0,0.0,56,0.00,,---,0.00,VWS V13.01,2013-01-05 04:29:00,
2013-01-04 23:34:00,30.6,16.3,29.09,NW,322,0.0,0.0,55,0.00,,---,0.00,VWS V13.01,2013-01-05 04:34:00,
2013-01-04 23:39:00,30.7,16.5,29.09,NW,322,0.0,0.0,55,0.00,,---,0.00,VWS V13.01,2013-01-05 04:39:00,
2013-01-04 23:44:00,30.6,16.7,29.09,NW,322,0.0,0.0,56,0.00,,---,0.00,VWS V13.01,2013-01-05 04:44:00,
2013-01-04 23:49:00,30.4,16.6,29.09,NW,322,0.0,0.0,56,0.00,,---,0.00,VWS V13.01,2013-01-05 04:49:00,
2013-01-04 23:54:00,30.2,16.8,29.09,NW,322,0.0,0.0,57,0.00,,---,0.00,VWS V13.01,2013-01-05 04:54:00,
2013-01-04 23:59:00,30.0,16.6,29.09,NW,322,0.0,0.0,57,0.00,,---,0.00,VWS V13.01,2013-01-05 04:59:00,